Latest Weather Observations for Montague Island

IDN60901

Issued at 6:41 pm EDT Tuesday 17 October 2017 (issued every 10 minutes, with the page automatically refreshed every 10 minutes)

About weather observations | Map of Canberra area stations | Latest observations for Canberra area | Other Formats
Station Details ID: 069017 Name: MONTAGUE ISLAND LIGHTHOUSE Lat: -36.25 Lon: 150.23 Height: 52.0 m
Data from the previous 72 hours. | See also: Recent months at Montague Island
Date/Time
EDT
Temp
°C
App
Temp
°C
Dew
Point
°C
Rel
Hum
%
Delta-T
°C
Wind Press
QNH
hPa
Press
MSL
hPa
Rain since
9am
mm
Dir  Spd
km/h
Gust
km/h
Spd
kts
Gust
kts
17/06:30pm 18.1 15.3 15.4 84 1.6 NNE 24 32 13 17 1025.3 1025.3 0.0
17/06:00pm 18.3 15.1 15.4 83 1.7 NNE 26 33 14 18 1025.0 1025.0 0.0
17/05:30pm 18.5 15.8 15.6 83 1.7 NNE 24 30 13 16 1025.0 1025.0 0.0
17/05:00pm 18.8 16.1 15.5 81 1.9 NNE 24 28 13 15 1024.7 1024.7 0.0
17/04:30pm 19.0 16.2 15.3 79 2.2 NNE 24 30 13 16 1024.4 1024.4 0.0
17/04:00pm 19.4 16.6 15.3 77 2.4 NNE 24 30 13 16 1024.4 1024.4 0.0
17/03:30pm 19.5 16.6 15.2 76 2.5 NNE 24 30 13 16 1024.5 1024.5 0.0
17/03:00pm 19.8 17.0 15.4 76 2.6 NE 24 32 13 17 1024.8 1024.8 0.0
17/02:30pm 19.8 16.6 15.4 76 2.6 NE 26 33 14 18 1025.1 1025.1 0.0
17/02:00pm 19.7 16.7 15.8 78 2.3 NE 26 32 14 17 1025.5 1025.5 0.0
17/01:30pm 19.8 16.8 15.9 78 2.3 NE 26 32 14 17 1025.6 1025.6 0.0
17/01:00pm 19.6 16.9 15.5 77 2.4 NE 24 28 13 15 1026.2 1026.2 0.0
17/12:30pm 19.2 16.2 14.7 75 2.6 NE 24 28 13 15 1026.5 1026.5 0.0
17/12:00pm 19.3 16.9 13.9 71 3.1 NE 19 24 10 13 1026.9 1026.9 0.0
17/11:30am 19.3 16.8 14.1 72 3.0 NE 20 24 11 13 1027.1 1027.1 0.0
17/11:00am 19.1 16.8 14.1 73 2.9 NE 19 26 10 14 1027.4 1027.4 0.0
17/10:30am 19.1 16.7 13.9 72 3.0 NNE 19 22 10 12 1027.5 1027.5 0.0
17/10:00am 18.3 16.1 13.4 73 2.8 NNE 17 20 9 11 1027.5 1027.5 0.0
17/09:30am 18.1 15.8 13.0 72 2.9 NNE 17 22 9 12 1027.3 1027.3 0.0
17/09:00am 17.5 15.2 13.0 75 2.5 NNE 17 20 9 11 1027.1 1027.1 0.0
17/08:30am 17.7 15.9 12.2 70 3.0 N 13 17 7 9 1026.7 1026.7 0.0
17/08:00am 17.0 14.8 12.1 73 2.7 N 15 19 8 10 1026.7 1026.7 0.0
17/07:30am 16.5 14.5 12.7 78 2.1 N 15 19 8 10 1026.3 1026.3 0.0
17/07:00am 15.8 13.7 12.4 80 1.9 NNW 15 20 8 11 1026.0 1026.0 0.0
17/06:30am 15.4 13.0 12.7 84 1.5 NNW 17 20 9 11 1025.6 1025.6 0.0
17/06:00am 15.3 12.7 13.2 87 1.2 N 19 22 10 12 1025.6 1025.6 0.0
17/05:30am 15.4 12.9 13.4 88 1.1 N 19 22 10 12 1025.4 1025.4 0.0
17/05:00am 15.8 13.8 13.8 88 1.1 N 17 22 9 12 1025.2 1025.2 0.0
17/04:30am 15.8 13.4 13.8 88 1.1 N 19 22 10 12 1025.4 1025.4 0.0
17/04:00am 15.9 14.0 14.1 89 1.0 N 17 22 9 12 1025.5 1025.5 0.0
17/03:30am 15.9 14.4 14.3 90 0.9 NNW 15 20 8 11 1025.6 1025.6 0.0
17/03:00am 15.9 14.5 14.6 92 0.7 NNW 15 19 8 10 1025.8 1025.8 0.0
17/02:30am 15.9 14.4 14.3 90 0.9 NNW 15 19 8 10 1026.0 1026.0 0.0
17/02:00am 16.2 14.3 14.2 88 1.1 N 17 20 9 11 1026.2 1026.2 0.0
17/01:30am 16.7 15.4 14.9 89 1.0 N 15 20 8 11 1026.5 1026.5 0.0
17/01:00am 17.0 14.8 15.0 88 1.2 NNE 20 24 11 13 1026.6 1026.6 0.0
17/12:30am 17.1 15.2 15.1 88 1.2 NNE 19 24 10 13 1026.9 1026.9 0.0
17/12:00am 17.1 15.2 15.3 89 1.0 NNE 19 22 10 12 1027.1 1027.1 0.0
 
Date/Time
EDT
Temp
°C
App
Temp
°C
Dew
Point
°C
Rel
Hum
%
Delta-T
°C
Wind Press
QNH
hPa
Press
MSL
hPa
Rain since
9am
mm
Dir  Spd
km/h
Gust
km/h
Spd
kts
Gust
kts
16/11:30pm 17.2 15.3 15.2 88 1.2 NNE 19 22 10 12 1027.2 1027.2 0.0
16/11:00pm 17.3 15.2 15.3 88 1.2 NNE 20 24 11 13 1027.2 1027.2 0.0
16/10:30pm 17.3 15.4 15.3 88 1.2 NNE 19 22 10 12 1027.0 1027.0 0.0
16/10:00pm 17.3 15.1 14.9 86 1.4 NNE 20 24 11 13 1027.0 1027.0 0.0
16/09:30pm 17.4 15.2 14.9 85 1.5 NNE 20 28 11 15 1026.9 1026.9 0.0
16/09:00pm 17.5 15.3 15.0 85 1.4 NNE 20 26 11 14 1026.7 1026.7 0.0
16/08:30pm 17.6 14.9 14.7 83 1.7 NNE 22 28 12 15 1026.4 1026.4 0.0
16/08:00pm 17.7 15.1 15.0 84 1.6 NNE 22 28 12 15 1026.1 1026.1 0.0
16/07:30pm 17.7 15.6 15.3 86 1.4 NNE 20 24 11 13 1025.9 1025.9 0.0
16/07:00pm 17.8 16.3 15.4 86 1.4 NNE 17 20 9 11 1025.8 1025.8 0.0
16/06:30pm 17.9 16.0 15.3 85 1.5 NNE 19 24 10 13 1025.6 1025.6 0.0
16/06:00pm 18.2 16.4 15.5 84 1.6 NNE 19 24 10 13 1025.5 1025.5 0.0
16/05:30pm 18.4 16.3 15.3 82 1.8 NNE 20 24 11 13 1025.5 1025.5 0.0
16/05:00pm 18.6 16.3 15.7 83 1.7 NNE 22 26 12 14 1025.3 1025.3 0.0
16/04:30pm 19.0 17.1 15.7 81 2.0 NE 20 28 11 15 1025.2 1025.2 0.0
16/04:00pm 19.2 17.4 16.1 82 1.8 NE 20 26 11 14 1025.3 1025.3 0.0
16/03:30pm 19.3 16.8 16.2 82 1.9 NE 24 30 13 16 1025.4 1025.4 0.0
16/03:00pm 19.4 17.3 16.1 81 2.0 NE 22 28 12 15 1025.7 1025.7 0.0
16/02:30pm 19.4 16.9 16.2 82 1.9 NE 24 30 13 16 1025.9 1025.9 0.0
16/02:00pm 19.1 16.5 16.0 82 1.8 NE 24 28 13 15 1026.1 1026.1 0.0
16/01:30pm 18.8 16.5 15.7 82 1.8 NE 22 28 12 15 1026.5 1026.5 0.0
16/01:00pm 18.5 16.5 15.4 82 1.8 NE 20 24 11 13 1027.0 1027.0 0.0
16/12:30pm 18.8 17.4 15.5 81 1.9 NE 17 20 9 11 1027.2 1027.2 0.0
16/12:00pm 19.2 18.4 15.1 77 2.4 NE 13 17 7 9 1027.5 1027.5 0.0
16/11:30am 19.6 19.3 15.5 77 2.4 NE 11 15 6 8 1027.7 1027.7 0.0
16/11:00am 18.7 18.6 15.0 79 2.2 NNE 9 13 5 7 1028.0 1028.0 0.0
16/10:30am 18.8 19.1 14.9 78 2.3 N 7 11 4 6 1028.1 1028.1 0.0
16/10:00am 18.5 19.2 15.6 83 1.7 N 6 9 3 5 1028.1 1028.1 0.0
16/09:30am 17.9 18.4 15.0 83 1.7 NNW 6 11 3 6 1027.9 1027.9 0.0
16/09:00am 17.1 18.1 15.3 89 1.0 SE 4 6 2 3 1027.7 1027.7 0.0
16/08:30am 16.3 16.7 14.7 90 0.9 S 6 9 3 5 1027.7 1027.7 0.0
16/08:00am 16.2 16.6 14.7 91 0.9 SW 6 7 3 4 1027.5 1027.5 0.0
16/07:30am 16.1 16.5 14.8 92 0.7 SW 6 7 3 4 1027.1 1027.1 0.0
16/07:00am 15.5 15.6 14.4 93 0.6 SSW 7 7 4 4 1026.8 1026.8 0.0
16/06:30am 15.6 15.6 14.3 92 0.7 S 7 7 4 4 1026.4 1026.4 0.0
16/06:00am 16.0 16.3 14.5 91 0.9 SW 6 7 3 4 1026.1 1026.1 0.0
16/05:30am 15.7 15.9 14.2 91 0.9 WSW 6 7 3 4 1025.8 1025.8 0.0
16/05:00am 15.8 16.0 14.3 91 0.9 WSW 6 7 3 4 1025.7 1025.7 0.0
16/04:30am 15.9 16.2 14.6 92 0.7 W 6 7 3 4 1025.6 1025.6 0.0
16/04:00am 15.9 16.1 14.6 92 0.7 W 7 9 4 5 1025.6 1025.6 0.0
16/03:30am 16.0 16.2 14.7 92 0.7 WNW 7 9 4 5 1025.7 1025.7 0.0
16/03:00am 16.3 16.7 14.8 91 0.9 WNW 6 7 3 4 1025.8 1025.8 0.0
16/02:30am 16.1 16.4 14.6 91 0.9 WNW 6 6 3 3 1026.1 1026.1 0.0
16/02:00am 16.2 16.6 14.7 91 0.9 WNW 6 6 3 3 1026.2 1026.2 0.0
16/01:30am 16.2 16.5 14.6 90 0.9 NW 6 7 3 4 1026.4 1026.4 0.0
16/01:00am 16.5 16.8 14.5 88 1.1 WNW 6 7 3 4 1026.6 1026.6 0.0
16/12:30am 16.9 16.8 14.9 88 1.2 NNW 9 13 5 7 1026.7 1026.7 0.0
16/12:00am 17.2 16.4 15.0 87 1.3 NNE 13 15 7 8 1026.5 1026.5 0.0
 
Date/Time
EDT
Temp
°C
App
Temp
°C
Dew
Point
°C
Rel
Hum
%
Delta-T
°C
Wind Press
QNH
hPa
Press
MSL
hPa
Rain since
9am
mm
Dir  Spd
km/h
Gust
km/h
Spd
kts
Gust
kts
15/11:30pm 17.1 16.2 14.9 87 1.3 NNE 13 15 7 8 1026.6 1026.6 0.0
15/11:00pm 17.1 16.5 14.7 86 1.4 NNE 11 15 6 8 1026.5 1026.5 0.0
15/10:30pm 17.1 16.5 14.6 85 1.4 NNE 11 15 6 8 1026.4 1026.4 0.0
15/10:00pm 17.1 16.5 14.6 85 1.4 NNE 11 13 6 7 1026.3 1026.3 0.0
15/09:30pm 16.9 16.5 14.2 84 1.5 NNE 9 13 5 7 1026.3 1026.3 0.0
15/09:00pm 17.0 16.3 14.3 84 1.5 NNE 11 13 6 7 1026.0 1026.0 0.0
15/08:30pm 16.9 16.2 14.2 84 1.5 N 11 13 6 7 1025.9 1025.9 0.0
15/08:00pm 16.9 16.5 14.0 83 1.6 N 9 13 5 7 1025.6 1025.6 0.0
15/07:30pm 17.0 16.2 13.9 82 1.8 NNE 11 15 6 8 1025.3 1025.3 0.0
15/07:00pm 17.2 16.0 13.9 81 1.9 NNE 13 17 7 9 1024.9 1024.9 0.0
15/06:30pm 17.3 16.0 13.8 80 2.0 NNE 13 15 7 8 1024.7 1024.7 0.0
15/06:00pm 17.6 16.4 13.9 79 2.1 NNE 13 17 7 9 1024.5 1024.5 0.0
15/05:30pm 17.9 16.6 13.8 77 2.3 NNE 13 17 7 9 1024.4 1024.4 0.0
15/05:00pm 18.1 16.9 14.0 77 2.3 NNE 13 17 7 9 1024.1 1024.1 0.0
15/04:30pm 18.3 16.7 13.8 75 2.6 NNE 15 19 8 10 1024.0 1024.0 0.0
15/04:00pm 18.6 17.0 13.9 74 2.7 NNE 15 19 8 10 1024.1 1024.1 0.0
15/03:30pm 18.8 16.9 14.1 74 2.7 NNE 17 22 9 12 1024.0 1024.0 0.0
15/03:00pm 18.8 16.4 13.9 73 2.8 NE 19 22 10 12 1023.9 1023.9 0.0
15/02:30pm 18.7 16.2 13.6 72 2.9 NE 19 24 10 13 1024.2 1024.2 0.0
15/02:00pm 18.7 16.3 13.8 73 2.8 NE 19 22 10 12 1024.3 1024.3 0.0
15/01:30pm 18.3 15.8 13.6 74 2.7 NE 19 22 10 12 1024.4 1024.4 0.0
15/01:00pm 17.9 15.1 13.2 74 2.6 NE 20 24 11 13 1024.4 1024.4 0.0
15/12:30pm 18.4 15.8 13.3 72 2.9 NE 19 24 10 13 1024.6 1024.6 0.0
15/12:00pm 18.0 15.0 12.0 68 3.3 NE 19 24 10 13 1025.0 1025.0 0.0
15/11:30am 17.7 14.8 12.4 71 2.9 NE 19 22 10 12 1025.1 1025.1 0.0
15/11:00am 17.5 15.0 12.2 71 2.9 NE 17 22 9 12 1025.2 1025.2 0.0
15/10:30am 17.3 15.1 12.0 71 2.9 NNE 15 19 8 10 1025.4 1025.4 0.0
15/10:00am 16.6 14.6 11.5 72 2.8 NNE 13 15 7 8 1025.5 1025.5 0.0
15/09:30am 15.8 14.0 10.8 72 2.7 NNE 11 15 6 8 1025.4 1025.4 0.0
15/09:00am 15.9 14.6 11.1 73 2.6 N 9 15 5 8 1025.3 1025.3 0.0
15/08:30am 14.5 12.6 10.5 77 2.1 NNW 11 15 6 8 1025.2 1025.2 0.0
15/08:00am 13.4 11.0 10.0 80 1.7 NNW 13 15 7 8 1025.0 1025.0 0.0
15/07:30am 13.2 11.3 10.6 84 1.4 NNW 11 15 6 8 1024.8 1024.8 0.0
15/07:00am 13.4 11.6 10.8 84 1.4 NNW 11 15 6 8 1024.5 1024.5 0.0
15/06:30am 13.0 11.1 10.5 85 1.3 NNW 11 13 6 7 1024.2 1024.2 0.0
15/06:00am 13.0 11.1 10.4 84 1.3 NNW 11 13 6 7 1024.0 1024.0 0.0
15/05:30am 13.2 11.5 10.0 81 1.7 NNW 9 13 5 7 1023.9 1023.9 0.0
15/05:00am 13.3 11.2 9.7 79 1.8 NNW 11 13 6 7 1023.9 1023.9 0.0
15/04:30am 13.5 11.4 9.9 79 1.9 NNW 11 15 6 8 1023.8 1023.8 0.0
15/04:00am 13.7 11.2 9.7 77 2.0 NNW 13 17 7 9 1023.8 1023.8 0.0
15/03:30am 13.6 12.2 10.8 83 1.5 NNW 9 13 5 7 1024.0 1024.0 0.0
15/03:00am 13.5 12.4 10.5 82 1.6 NW 7 11 4 6 1024.2 1024.2 0.0
15/02:30am 13.4 11.9 10.4 82 1.6 NW 9 13 5 7 1024.3 1024.3 0.0
15/02:00am 13.7 12.6 10.5 81 1.7 NW 7 13 4 7 1024.6 1024.6 0.0
15/01:30am 13.8 12.2 10.2 79 1.9 NW 9 13 5 7 1024.8 1024.8 0.0
15/01:00am 13.8 12.6 10.2 79 1.9 NW 7 11 4 6 1025.2 1025.2 0.0
15/12:30am 14.0 12.7 10.0 77 2.1 NW 7 11 4 6 1025.4 1025.4 0.0
15/12:00am 14.4 13.2 10.2 76 2.2 NW 7 11 4 6 1025.5 1025.5 0.0
 
Date/Time
EDT
Temp
°C
App
Temp
°C
Dew
Point
°C
Rel
Hum
%
Delta-T
°C
Wind Press
QNH
hPa
Press
MSL
hPa
Rain since
9am
mm
Dir  Spd
km/h
Gust
km/h
Spd
kts
Gust
kts
14/11:30pm 15.0 13.9 10.6 75 2.3 WNW 7 13 4 7 1025.7 1025.7 0.0
14/11:00pm 15.3 13.3 10.3 72 2.6 N 11 15 6 8 1025.9 1025.9 0.0
14/10:30pm 15.0 13.0 10.0 72 2.6 N 11 15 6 8 1025.9 1025.9 0.0
14/10:00pm 14.9 12.8 9.9 72 2.6 N 11 13 6 7 1026.0 1026.0 0.0
14/09:30pm 15.0 13.0 10.0 72 2.6 N 11 15 6 8 1026.0 1026.0 0.0
14/09:00pm 15.3 13.9 9.7 69 2.9 NE 7 11 4 6 1026.0 1026.0 0.0
14/08:30pm 15.3 13.8 9.2 67 3.1 ENE 7 11 4 6 1025.8 1025.8 0.0
14/08:00pm 15.4 13.6 9.5 68 3.0 ENE 9 13 5 7 1025.4 1025.4 0.0
14/07:30pm 15.3 13.4 9.2 67 3.1 ENE 9 11 5 6 1025.1 1025.1 0.0
14/07:00pm 15.4 13.5 8.9 65 3.3 ENE 9 13 5 7 1024.9 1024.9 0.0

Latest Capital City Observations: Canberra | Sydney | Melbourne | Brisbane | Adelaide | Perth | Hobart | Darwin

Other Formats:

Comma delimited format used in spreadsheet applications
http://www.bom.gov.au/fwo/IDN60903/IDN60903.94939.axf

JavaScript Object Notation format (JSON) in row-major order
http://www.bom.gov.au/fwo/IDN60903/IDN60903.94939.json